Cotes De Bretagne — FW3973 — position and weather

sailwx.info

Track history (hours):
 
Tides and Currents Weather Stations Pressure Air Temp Water Temp Dewpoint Dewpoint Depression Visibility Wind Speed Wind Dir Waves Ship Positions

Cotes De Bretagne

Last reported at 2017-Jul-11 03:01 UTC. Time now 2017-Jul-20 12:23 UTC.
Position N 48°44' W 004°24'.
Warning: this ship's position is 9 days out of date.

Length 75 m; draft 4.2 m.

Type: Dredging. MMSI: 227003850.

Date/timePositionNaut miles runAvg speedWind from/ knotsBaromVisibWave heightAir tempDewpointWater temp
2017-Jul-11 03:01N 48°44' W 004°24'011.9
2017-Jul-11 03:00N 48°44' W 004°24'612.2
2017-Jul-11 02:30N 48°42' W 004°33'611.6
2017-Jul-11 02:00N 48°39' W 004°41'611.2
2017-Jul-11 01:30N 48°36' W 004°48'611.8
2017-Jul-11 01:01N 48°30' W 004°50'611.1
2017-Jul-11 00:31N 48°25' W 004°49'611.9
2017-Jul-11 00:01N 48°19' W 004°47'510.3
2017-Jul-10 23:30N 48°14' W 004°45'510.1
2017-Jul-10 23:01N 48°09' W 004°45'510.1
2017-Jul-10 22:30N 48°04' W 004°46'5 9.9
2017-Jul-10 22:00N 47°59' W 004°42'510.1
2017-Jul-10 21:30N 47°56' W 004°37'8 9.8
2017-Jul-10 20:43N 47°50' W 004°30'10 9.1
2017-Jul-10 19:38N 47°44' W 004°17'7 9.8
2017-Jul-10 18:58N 47°45' W 004°08'11 7.9
2017-Jul-10 17:33N 47°56' W 004°07'2 3.3
2017-Jul-10 16:49N 47°58' W 004°06'0 0.1
2017-Jul-10 15:33N 47°58' W 004°06'5 5.0
2017-Jul-10 14:38N 47°54' W 004°08'4 6.0
2017-Jul-10 14:01N 47°51' W 004°06'0 6.6
2017-Jul-10 14:00N 47°51' W 004°06'6 5.8
2017-Jul-10 13:01N 47°47' W 003°59'6 6.0
2017-Jul-10 11:58N 47°44' W 003°51'4 6.0
2017-Jul-10 11:21N 47°42' W 003°46'2 5.9
2017-Jul-10 11:00N 47°41' W 003°44'3 6.2
2017-Jul-10 10:26N 47°39' W 003°40'3 7.5
2017-Jul-10 10:00N 47°36' W 003°36'4 7.4
2017-Jul-10 09:30N 47°34' W 003°32'4 7.5
2017-Jul-10 09:00N 47°32' W 003°28'4 7.5
2017-Jul-10 08:31N 47°29' W 003°23'4 7.7
2017-Jul-10 08:01N 47°27' W 003°19'4 8.1
2017-Jul-10 07:30N 47°25' W 003°13'4 8.9
2017-Jul-10 07:01N 47°23' W 003°08'4 8.6
2017-Jul-10 06:30N 47°20' W 003°03'4 8.0
2017-Jul-10 06:00N 47°17' W 002°59'4 8.6
2017-Jul-10 05:31N 47°14' W 002°55'45 8.4
2017-Jul-10 00:11N 46°41' W 002°11'2 8.8
2017-Jul-09 23:59N 46°40' W 002°09'4 8.4
2017-Jul-09 23:30N 46°36' W 002°06'4 8.4
2017-Jul-09 23:00N 46°33' W 002°03'4 8.6
2017-Jul-09 22:31N 46°29' W 001°59'4 8.7
2017-Jul-09 22:00N 46°26' W 001°55'4 8.7
2017-Jul-09 21:30N 46°22' W 001°52'4 8.6
2017-Jul-09 21:00N 46°18' W 001°49'5 8.5
2017-Jul-09 20:27N 46°15' W 001°45'4 8.2
2017-Jul-09 19:59N 46°12' W 001°42'4 7.8
2017-Jul-09 19:30N 46°08' W 001°39'4 7.7
2017-Jul-09 19:00N 46°05' W 001°35'0 0.7
2017-Jul-09 18:30N 46°05' W 001°36'0 0.2
2017-Jul-09 17:23N 46°05' W 001°36'0 0.6
2017-Jul-09 16:58N 46°05' W 001°35'2 3.1
2017-Jul-09 16:26N 46°06' W 001°37'410.3
2017-Jul-09 16:00N 46°10' W 001°40'610.4
2017-Jul-09 15:23N 46°15' W 001°46'410.4
2017-Jul-09 15:00N 46°18' W 001°49'510.6
2017-Jul-09 14:30N 46°23' W 001°53'510.3
2017-Jul-09 14:00N 46°27' W 001°57'510.2
2017-Jul-09 13:30N 46°31' W 002°02'5 9.8
2017-Jul-09 13:00N 46°35' W 002°05'510.0
2017-Jul-09 12:30N 46°40' W 002°10'510.4
2017-Jul-09 12:00N 46°44' W 002°14'1310.1
2017-Jul-09 10:43N 46°53' W 002°27'5 9.8
2017-Jul-09 10:10N 46°57' W 002°32'310.5
2017-Jul-09 09:52N 46°60' W 002°35'410.6
2017-Jul-09 09:29N 47°03' W 002°39'710.3
2017-Jul-09 08:49N 47°08' W 002°46'710.3
2017-Jul-09 08:09N 47°13' W 002°52'210.5
2017-Jul-09 07:57N 47°15' W 002°54'510.3
2017-Jul-09 07:30N 47°18' W 002°59'510.5
2017-Jul-09 07:01N 47°22' W 003°04'510.0
2017-Jul-09 06:30N 47°26' W 003°08'5 9.9
2017-Jul-09 06:00N 47°30' W 003°12'5 9.9
2017-Jul-09 05:30N 47°34' W 003°17'5 9.8
2017-Jul-09 05:01N 47°38' W 003°21'5 9.2
2017-Jul-09 04:31N 47°43' W 003°22'3 5.9
2017-Jul-09 04:01N 47°45' W 003°19'0 0.0
2017-Jul-09 03:31N 47°45' W 003°19'0 0.0
2017-Jul-09 03:01N 47°45' W 003°19'0 0.0
2017-Jul-09 02:31N 47°45' W 003°19'0 0.0
2017-Jul-09 02:00N 47°45' W 003°19'1 2.7
2017-Jul-09 01:30N 47°44' W 003°21'4 7.7
2017-Jul-09 01:01N 47°41' W 003°24'1 1.6
2017-Jul-09 00:30N 47°40' W 003°25'0 0.0
2017-Jul-09 00:00N 47°40' W 003°25'0 0.0
2017-Jul-08 23:31N 47°40' W 003°25'0 0.0
2017-Jul-08 23:00N 47°40' W 003°25'0 0.0
2017-Jul-08 22:30N 47°40' W 003°25'0 0.0
2017-Jul-08 22:00N 47°40' W 003°25'0 0.0
2017-Jul-08 21:30N 47°40' W 003°25'0 0.0
2017-Jul-08 21:00N 47°40' W 003°25'0 0.0
2017-Jul-08 20:31N 47°40' W 003°25'0 0.0
2017-Jul-08 20:00N 47°40' W 003°25'0 0.0
2017-Jul-08 19:30N 47°40' W 003°25'0 0.0
2017-Jul-08 19:00N 47°40' W 003°25'1 2.8
2017-Jul-08 18:30N 47°39' W 003°23'4 8.2
2017-Jul-08 18:00N 47°36' W 003°20'4 7.8
2017-Jul-08 17:30N 47°33' W 003°17'4 7.8
2017-Jul-08 17:00N 47°29' W 003°14'4 7.8
2017-Jul-08 16:30N 47°26' W 003°11'4 8.1
2017-Jul-08 16:00N 47°23' W 003°06'4 8.1
2017-Jul-08 15:30N 47°20' W 003°02'4 8.2
2017-Jul-08 15:00N 47°17' W 002°58'48 8.5
2017-Jul-08 09:23N 46°42' W 002°12'3 8.8
2017-Jul-08 09:00N 46°39' W 002°09'4 8.8
2017-Jul-08 08:30N 46°35' W 002°06'5 9.0
2017-Jul-08 07:59N 46°31' W 002°01'4 9.1
2017-Jul-08 07:30N 46°28' W 001°58'4 8.9
2017-Jul-08 07:00N 46°24' W 001°54'4 8.9
2017-Jul-08 06:31N 46°21' W 001°50'4 8.7
2017-Jul-08 06:01N 46°17' W 001°47'4 8.6
2017-Jul-08 05:31N 46°13' W 001°44'6 8.8
2017-Jul-08 04:52N 46°09' W 001°39'4 2.5
2017-Jul-08 03:09N 46°05' W 001°36'0 0.8
2017-Jul-08 02:52N 46°05' W 001°36'0 0.6
2017-Jul-08 02:31N 46°05' W 001°35'0 0.6
2017-Jul-08 02:00N 46°05' W 001°36'0 0.1
2017-Jul-08 01:31N 46°05' W 001°36'1 1.5
2017-Jul-08 01:01N 46°06' W 001°36'510.0
2017-Jul-08 00:31N 46°10' W 001°40'510.5
2017-Jul-08 00:01N 46°14' W 001°44'510.5
2017-Jul-07 23:31N 46°19' W 001°48'510.7
2017-Jul-07 23:01N 46°23' W 001°52'510.6
2017-Jul-07 22:31N 46°28' W 001°56'510.4
2017-Jul-07 22:00N 46°32' W 002°01'510.3
2017-Jul-07 21:30N 46°36' W 002°05'510.3
2017-Jul-07 21:01N 46°40' W 002°10'510.1
2017-Jul-07 20:31N 46°44' W 002°14'5 9.6
2017-Jul-07 20:00N 46°48' W 002°19'510.0
2017-Jul-07 19:31N 46°51' W 002°24'510.2
2017-Jul-07 19:00N 46°55' W 002°29'610.8
2017-Jul-07 18:28N 46°60' W 002°34'510.7
2017-Jul-07 18:00N 47°04' W 002°39'510.5
2017-Jul-07 17:31N 47°08' W 002°44'510.6
2017-Jul-07 17:01N 47°12' W 002°49'510.8
2017-Jul-07 16:31N 47°16' W 002°54'511.0
2017-Jul-07 16:00N 47°19' W 003°01'510.5
2017-Jul-07 15:30N 47°22' W 003°07'510.4
2017-Jul-07 15:00N 47°25' W 003°13'1010.4
2017-Jul-07 14:00N 47°29' W 003°28'510.0
2017-Jul-07 13:29N 47°31' W 003°35'510.2
2017-Jul-07 13:00N 47°33' W 003°41'610.3
2017-Jul-07 12:28N 47°35' W 003°49'510.1
2017-Jul-07 11:58N 47°36' W 003°56'7 9.9
2017-Jul-07 11:14N 47°39' W 004°06'4 9.8
2017-Jul-07 10:51N 47°41' W 004°11'3 9.1
2017-Jul-07 10:30N 47°42' W 004°15'5 9.2
2017-Jul-07 10:00N 47°45' W 004°21'5 8.9
2017-Jul-07 09:29N 47°47' W 004°27'4 9.1
2017-Jul-07 09:00N 47°50' W 004°31'5 9.5
2017-Jul-07 08:30N 47°54' W 004°36'5 9.5
2017-Jul-07 08:01N 47°57' W 004°41'5 9.4
2017-Jul-07 07:31N 48°01' W 004°45'5 9.6
2017-Jul-07 07:01N 48°06' W 004°45'5 9.8
2017-Jul-07 06:31N 48°11' W 004°46'5 9.7
2017-Jul-07 06:01N 48°16' W 004°46'611.2
2017-Jul-07 05:30N 48°21' W 004°48'612.1
2017-Jul-07 05:01N 48°27' W 004°51'510.2
2017-Jul-07 04:31N 48°32' W 004°51'5 9.6
2017-Jul-07 04:00N 48°36' W 004°48'4 8.7
2017-Jul-07 03:31N 48°39' W 004°43'4 8.8
2017-Jul-07 03:01N 48°41' W 004°37'4 8.6
2017-Jul-07 02:31N 48°43' W 004°31'4 8.4
2017-Jul-07 02:00N 48°44' W 004°24'4 8.7
2017-Jul-07 01:31N 48°45' W 004°18'5 9.5
2017-Jul-07 01:00N 48°46' W 004°11'5 9.8
2017-Jul-07 00:30N 48°47' W 004°04'5 9.5
2017-Jul-07 00:00N 48°48' W 003°56'510.6
2017-Jul-06 23:30N 48°49' W 003°49'310.6
2017-Jul-06 23:15N 48°49' W 003°45'36 0.9
2017-Jul-05 08:28N 48°49' W 002°50'0 0.0
2017-Jul-05 07:43N 48°49' W 002°50'0 0.0
2017-Jul-05 07:31N 48°49' W 002°50'0 0.0
2017-Jul-05 06:57N 48°49' W 002°50'2 4.5
2017-Jul-05 06:29N 48°49' W 002°47'1111.2
2017-Jul-05 05:28N 48°45' W 002°30'510.8
2017-Jul-05 05:00N 48°44' W 002°23'610.5
2017-Jul-05 04:26N 48°42' W 002°14'510.3
2017-Jul-05 03:58N 48°40' W 002°08'4 8.9
2017-Jul-05 03:30N 48°39' W 002°02'1 1.2
2017-Jul-05 02:57N 48°39' W 002°01'0 0.1
2017-Jul-05 02:30N 48°39' W 002°01'0 0.0
2017-Jul-05 01:59N 48°39' W 002°01'0 0.0
2017-Jul-05 01:30N 48°39' W 002°01'0 0.8
2017-Jul-05 01:00N 48°39' W 002°01'0 0.6
2017-Jul-05 00:30N 48°38' W 002°02'4 7.9
2017-Jul-05 00:00N 48°40' W 002°07'4 8.0
2017-Jul-04 23:30N 48°41' W 002°13'5 8.2
2017-Jul-04 22:54N 48°43' W 002°20'4 7.7
2017-Jul-04 22:23N 48°44' W 002°26'4 7.9
2017-Jul-04 21:56N 48°45' W 002°31'4 7.7
2017-Jul-04 21:21N 48°47' W 002°37'3 7.6
2017-Jul-04 20:55N 48°48' W 002°42'3 7.6
2017-Jul-04 20:28N 48°49' W 002°47'2 3.0
2017-Jul-04 19:54N 48°49' W 002°50'0 0.0
2017-Jul-04 19:07N 48°49' W 002°50'0 0.0
2017-Jul-04 18:58N 48°49' W 002°50'0 0.0
2017-Jul-04 18:22N 48°49' W 002°50'1 3.9
2017-Jul-04 18:01N 48°49' W 002°48'711.4
2017-Jul-04 17:22N 48°47' W 002°37'411.3
2017-Jul-04 17:00N 48°45' W 002°31'710.9
2017-Jul-04 16:19N 48°43' W 002°20'410.5
2017-Jul-04 15:54N 48°42' W 002°14'410.3
2017-Jul-04 15:30N 48°40' W 002°08'5 9.1
2017-Jul-04 15:00N 48°39' W 002°02'1 0.4
2017-Jul-04 13:39N 48°39' W 002°01'0 0.0
2017-Jul-04 13:21N 48°39' W 002°01'0 0.0
2017-Jul-04 12:58N 48°39' W 002°01'0 0.0
2017-Jul-04 12:25N 48°39' W 002°01'0 0.0
2017-Jul-04 11:45N 48°39' W 002°01'0 0.0
2017-Jul-04 11:24N 48°39' W 002°01'0 0.0
2017-Jul-04 11:00N 48°39' W 002°01'0 0.0
2017-Jul-04 10:29N 48°39' W 002°01'0 0.0
2017-Jul-04 09:59N 48°39' W 002°01'0 0.0
2017-Jul-04 09:30N 48°39' W 002°01'0 0.0
2017-Jul-04 09:00N 48°39' W 002°01'0 0.0
2017-Jul-04 08:27N 48°39' W 002°01'0 0.0
2017-Jul-04 08:00N 48°39' W 002°01'0 0.0
2017-Jul-04 07:28N 48°39' W 002°01'0 0.0
2017-Jul-04 07:00N 48°39' W 002°01'0 0.0
2017-Jul-04 06:25N 48°39' W 002°01'0 0.0
2017-Jul-04 06:00N 48°39' W 002°01'0 0.0
2017-Jul-04 05:29N 48°39' W 002°01'0 0.0
2017-Jul-04 05:00N 48°39' W 002°01'0 0.0
2017-Jul-04 04:30N 48°39' W 002°01'0 0.0
2017-Jul-04 04:00N 48°39' W 002°01'0 0.0
2017-Jul-04 03:25N 48°39' W 002°01'0 0.0
2017-Jul-04 03:00N 48°39' W 002°01'0 0.0
2017-Jul-04 02:28N 48°39' W 002°01'0 0.0
2017-Jul-04 01:53N 48°39' W 002°01'0 0.0
2017-Jul-04 01:27N 48°39' W 002°01'0 0.0
2017-Jul-04 00:52N 48°39' W 002°01'0 0.0
2017-Jul-04 00:22N 48°39' W 002°01'0 0.0
2017-Jul-03 23:58N 48°39' W 002°01'0 0.0
2017-Jul-03 23:30N 48°39' W 002°01'0 0.0
2017-Jul-03 22:19N 48°39' W 002°01'0 0.0
2017-Jul-03 21:59N 48°39' W 002°01'0 0.0
2017-Jul-03 21:27N 48°39' W 002°01'0 0.0
2017-Jul-03 20:56N 48°39' W 002°01'0 0.0
2017-Jul-03 20:05N 48°39' W 002°01'0 0.0
2017-Jul-03 19:59N 48°39' W 002°01'0 0.0
2017-Jul-03 19:27N 48°39' W 002°01'0 0.0
2017-Jul-03 18:58N 48°39' W 002°01'0 0.0
2017-Jul-03 17:57N 48°39' W 002°01'0 0.0
2017-Jul-03 16:44N 48°39' W 002°01'0 0.0
2017-Jul-03 16:09N 48°39' W 002°01'0 0.0
2017-Jul-03 15:52N 48°39' W 002°01'0 0.0
2017-Jul-03 13:27N 48°39' W 002°01'0 0.0
2017-Jul-03 10:39N 48°39' W 002°01'0 0.0
2017-Jul-03 10:27N 48°39' W 002°01'0 0.0
2017-Jul-03 09:22N 48°39' W 002°01'0 0.0
2017-Jul-03 08:51N 48°39' W 002°01'0 0.0
2017-Jul-03 08:14N 48°39' W 002°01'0 0.0
2017-Jul-03 07:54N 48°39' W 002°01'0 0.0
2017-Jul-03 07:11N 48°39' W 002°01'0 0.0
2017-Jul-03 06:59N 48°39' W 002°01'0 0.0
2017-Jul-03 06:29N 48°39' W 002°01'0 0.0
2017-Jul-03 05:52N 48°39' W 002°01'0 0.0
2017-Jul-03 05:30N 48°39' W 002°01'0 0.0
2017-Jul-03 05:00N 48°39' W 002°01'0 0.0
2017-Jul-03 04:24N 48°39' W 002°01'0 0.0
2017-Jul-03 03:57N 48°39' W 002°01'0 0.0
2017-Jul-03 03:30N 48°39' W 002°01'0 0.0
2017-Jul-03 02:42N 48°39' W 002°01'0 0.0
2017-Jul-03 02:26N 48°39' W 002°01'0 0.0
2017-Jul-03 01:57N 48°39' W 002°01'0 0.0
2017-Jul-03 01:27N 48°39' W 002°01'0 0.0
2017-Jul-03 00:39N 48°39' W 002°01'0 0.0
2017-Jul-03 00:15N 48°39' W 002°01'0 0.0
2017-Jul-02 23:51N 48°39' W 002°01'0 0.0
2017-Jul-02 23:22N 48°39' W 002°01'0 0.0
2017-Jul-02 22:59N 48°39' W 002°01'0 0.8
2017-Jul-02 22:21N 48°39' W 002°02'1 4.1
2017-Jul-02 21:59N 48°39' W 002°03'4 7.1
2017-Jul-02 21:28N 48°40' W 002°09'4 6.3
2017-Jul-02 20:53N 48°42' W 002°14'4 6.5
2017-Jul-02 20:18N 48°43' W 002°20'3 6.3
2017-Jul-02 19:45N 48°44' W 002°24'2 6.5
2017-Jul-02 19:25N 48°44' W 002°28'4 6.4
2017-Jul-02 18:52N 48°46' W 002°33'2 6.3
2017-Jul-02 18:30N 48°46' W 002°36'4 6.5
2017-Jul-02 17:52N 48°47' W 002°42'3 6.7
2017-Jul-02 17:22N 48°49' W 002°47'2 5.4
2017-Jul-02 17:00N 48°49' W 002°50'57 1.9
2017-Jul-01 11:43N 48°45' W 004°15'811.3
2017-Jul-01 11:03N 48°43' W 004°26'111.5
2017-Jul-01 10:58N 48°43' W 004°28'511.5
2017-Jul-01 10:30N 48°41' W 004°35'611.8
2017-Jul-01 10:00N 48°39' W 004°43'611.2
2017-Jul-01 09:30N 48°34' W 004°49'510.9
2017-Jul-01 09:00N 48°29' W 004°50'510.6
2017-Jul-01 08:30N 48°24' W 004°49'611.2
2017-Jul-01 08:01N 48°18' W 004°47'5 9.9
2017-Jul-01 07:31N 48°13' W 004°45'5 9.9
2017-Jul-01 07:00N 48°08' W 004°45'510.3
2017-Jul-01 06:30N 48°03' W 004°46'510.5
2017-Jul-01 06:00N 47°59' W 004°42'5 9.6
2017-Jul-01 05:30N 47°55' W 004°37'5 9.3
2017-Jul-01 04:59N 47°52' W 004°32'9 9.0
2017-Jul-01 03:58N 47°45' W 004°23'  
Track history (hours):
 
Tides and Currents Weather Stations Pressure Air Temp Water Temp Dewpoint Dewpoint Depression Visibility Wind Speed Wind Dir Waves Ship Positions

Cotes De Bretagne

Last reported at 2017-Jul-11 03:01 UTC. Time now 2017-Jul-20 12:23 UTC.
Position N 48°44' W 004°24'.
Warning: this ship's position is 9 days out of date.

Length 75 m; draft 4.2 m.

Type: Dredging. MMSI: 227003850.

Date/timePositionNaut miles runAvg speedWind from/ knotsBaromVisibWave heightAir tempDewpointWater temp
2017-Jul-11 03:01N 48°44' W 004°24'011.9
2017-Jul-11 03:00N 48°44' W 004°24'612.2
2017-Jul-11 02:30N 48°42' W 004°33'611.6
2017-Jul-11 02:00N 48°39' W 004°41'611.2
2017-Jul-11 01:30N 48°36' W 004°48'611.8
2017-Jul-11 01:01N 48°30' W 004°50'611.1
2017-Jul-11 00:31N 48°25' W 004°49'611.9
2017-Jul-11 00:01N 48°19' W 004°47'510.3
2017-Jul-10 23:30N 48°14' W 004°45'510.1
2017-Jul-10 23:01N 48°09' W 004°45'510.1
2017-Jul-10 22:30N 48°04' W 004°46'5 9.9
2017-Jul-10 22:00N 47°59' W 004°42'510.1
2017-Jul-10 21:30N 47°56' W 004°37'8 9.8
2017-Jul-10 20:43N 47°50' W 004°30'10 9.1
2017-Jul-10 19:38N 47°44' W 004°17'7 9.8
2017-Jul-10 18:58N 47°45' W 004°08'11 7.9
2017-Jul-10 17:33N 47°56' W 004°07'2 3.3
2017-Jul-10 16:49N 47°58' W 004°06'0 0.1
2017-Jul-10 15:33N 47°58' W 004°06'5 5.0
2017-Jul-10 14:38N 47°54' W 004°08'4 6.0
2017-Jul-10 14:01N 47°51' W 004°06'0 6.6
2017-Jul-10 14:00N 47°51' W 004°06'6 5.8
2017-Jul-10 13:01N 47°47' W 003°59'6 6.0
2017-Jul-10 11:58N 47°44' W 003°51'4 6.0
2017-Jul-10 11:21N 47°42' W 003°46'2 5.9
2017-Jul-10 11:00N 47°41' W 003°44'3 6.2
2017-Jul-10 10:26N 47°39' W 003°40'3 7.5
2017-Jul-10 10:00N 47°36' W 003°36'4 7.4
2017-Jul-10 09:30N 47°34' W 003°32'4 7.5
2017-Jul-10 09:00N 47°32' W 003°28'4 7.5
2017-Jul-10 08:31N 47°29' W 003°23'4 7.7
2017-Jul-10 08:01N 47°27' W 003°19'4 8.1
2017-Jul-10 07:30N 47°25' W 003°13'4 8.9
2017-Jul-10 07:01N 47°23' W 003°08'4 8.6
2017-Jul-10 06:30N 47°20' W 003°03'4 8.0
2017-Jul-10 06:00N 47°17' W 002°59'4 8.6
2017-Jul-10 05:31N 47°14' W 002°55'45 8.4
2017-Jul-10 00:11N 46°41' W 002°11'2 8.8
2017-Jul-09 23:59N 46°40' W 002°09'4 8.4
2017-Jul-09 23:30N 46°36' W 002°06'4 8.4
2017-Jul-09 23:00N 46°33' W 002°03'4 8.6
2017-Jul-09 22:31N 46°29' W 001°59'4 8.7
2017-Jul-09 22:00N 46°26' W 001°55'4 8.7
2017-Jul-09 21:30N 46°22' W 001°52'4 8.6
2017-Jul-09 21:00N 46°18' W 001°49'5 8.5
2017-Jul-09 20:27N 46°15' W 001°45'4 8.2
2017-Jul-09 19:59N 46°12' W 001°42'4 7.8
2017-Jul-09 19:30N 46°08' W 001°39'4 7.7
2017-Jul-09 19:00N 46°05' W 001°35'0 0.7
2017-Jul-09 18:30N 46°05' W 001°36'0 0.2
2017-Jul-09 17:23N 46°05' W 001°36'0 0.6
2017-Jul-09 16:58N 46°05' W 001°35'2 3.1
2017-Jul-09 16:26N 46°06' W 001°37'410.3
2017-Jul-09 16:00N 46°10' W 001°40'610.4
2017-Jul-09 15:23N 46°15' W 001°46'410.4
2017-Jul-09 15:00N 46°18' W 001°49'510.6
2017-Jul-09 14:30N 46°23' W 001°53'510.3
2017-Jul-09 14:00N 46°27' W 001°57'510.2
2017-Jul-09 13:30N 46°31' W 002°02'5 9.8
2017-Jul-09 13:00N 46°35' W 002°05'510.0
2017-Jul-09 12:30N 46°40' W 002°10'510.4
2017-Jul-09 12:00N 46°44' W 002°14'1310.1
2017-Jul-09 10:43N 46°53' W 002°27'5 9.8
2017-Jul-09 10:10N 46°57' W 002°32'310.5
2017-Jul-09 09:52N 46°60' W 002°35'410.6
2017-Jul-09 09:29N 47°03' W 002°39'710.3
2017-Jul-09 08:49N 47°08' W 002°46'710.3
2017-Jul-09 08:09N 47°13' W 002°52'210.5
2017-Jul-09 07:57N 47°15' W 002°54'510.3
2017-Jul-09 07:30N 47°18' W 002°59'510.5
2017-Jul-09 07:01N 47°22' W 003°04'510.0
2017-Jul-09 06:30N 47°26' W 003°08'5 9.9
2017-Jul-09 06:00N 47°30' W 003°12'5 9.9
2017-Jul-09 05:30N 47°34' W 003°17'5 9.8
2017-Jul-09 05:01N 47°38' W 003°21'5 9.2
2017-Jul-09 04:31N 47°43' W 003°22'3 5.9
2017-Jul-09 04:01N 47°45' W 003°19'0 0.0
2017-Jul-09 03:31N 47°45' W 003°19'0 0.0
2017-Jul-09 03:01N 47°45' W 003°19'0 0.0
2017-Jul-09 02:31N 47°45' W 003°19'0 0.0
2017-Jul-09 02:00N 47°45' W 003°19'1 2.7
2017-Jul-09 01:30N 47°44' W 003°21'4 7.7
2017-Jul-09 01:01N 47°41' W 003°24'1 1.6
2017-Jul-09 00:30N 47°40' W 003°25'0 0.0
2017-Jul-09 00:00N 47°40' W 003°25'0 0.0
2017-Jul-08 23:31N 47°40' W 003°25'0 0.0
2017-Jul-08 23:00N 47°40' W 003°25'0 0.0
2017-Jul-08 22:30N 47°40' W 003°25'0 0.0
2017-Jul-08 22:00N 47°40' W 003°25'0 0.0
2017-Jul-08 21:30N 47°40' W 003°25'0 0.0
2017-Jul-08 21:00N 47°40' W 003°25'0 0.0
2017-Jul-08 20:31N 47°40' W 003°25'0 0.0
2017-Jul-08 20:00N 47°40' W 003°25'0 0.0
2017-Jul-08 19:30N 47°40' W 003°25'0 0.0
2017-Jul-08 19:00N 47°40' W 003°25'1 2.8
2017-Jul-08 18:30N 47°39' W 003°23'4 8.2
2017-Jul-08 18:00N 47°36' W 003°20'4 7.8
2017-Jul-08 17:30N 47°33' W 003°17'4 7.8
2017-Jul-08 17:00N 47°29' W 003°14'4 7.8
2017-Jul-08 16:30N 47°26' W 003°11'4 8.1
2017-Jul-08 16:00N 47°23' W 003°06'4 8.1
2017-Jul-08 15:30N 47°20' W 003°02'4 8.2
2017-Jul-08 15:00N 47°17' W 002°58'48 8.5
2017-Jul-08 09:23N 46°42' W 002°12'3 8.8
2017-Jul-08 09:00N 46°39' W 002°09'4 8.8
2017-Jul-08 08:30N 46°35' W 002°06'5 9.0
2017-Jul-08 07:59N 46°31' W 002°01'4 9.1
2017-Jul-08 07:30N 46°28' W 001°58'4 8.9
2017-Jul-08 07:00N 46°24' W 001°54'4 8.9
2017-Jul-08 06:31N 46°21' W 001°50'4 8.7
2017-Jul-08 06:01N 46°17' W 001°47'4 8.6
2017-Jul-08 05:31N 46°13' W 001°44'6 8.8
2017-Jul-08 04:52N 46°09' W 001°39'4 2.5
2017-Jul-08 03:09N 46°05' W 001°36'0 0.8
2017-Jul-08 02:52N 46°05' W 001°36'0 0.6
2017-Jul-08 02:31N 46°05' W 001°35'0 0.6
2017-Jul-08 02:00N 46°05' W 001°36'0 0.1
2017-Jul-08 01:31N 46°05' W 001°36'1 1.5
2017-Jul-08 01:01N 46°06' W 001°36'510.0
2017-Jul-08 00:31N 46°10' W 001°40'510.5
2017-Jul-08 00:01N 46°14' W 001°44'510.5
2017-Jul-07 23:31N 46°19' W 001°48'510.7
2017-Jul-07 23:01N 46°23' W 001°52'510.6
2017-Jul-07 22:31N 46°28' W 001°56'510.4
2017-Jul-07 22:00N 46°32' W 002°01'510.3
2017-Jul-07 21:30N 46°36' W 002°05'510.3
2017-Jul-07 21:01N 46°40' W 002°10'510.1
2017-Jul-07 20:31N 46°44' W 002°14'5 9.6
2017-Jul-07 20:00N 46°48' W 002°19'510.0
2017-Jul-07 19:31N 46°51' W 002°24'510.2
2017-Jul-07 19:00N 46°55' W 002°29'610.8
2017-Jul-07 18:28N 46°60' W 002°34'510.7
2017-Jul-07 18:00N 47°04' W 002°39'510.5
2017-Jul-07 17:31N 47°08' W 002°44'510.6
2017-Jul-07 17:01N 47°12' W 002°49'510.8
2017-Jul-07 16:31N 47°16' W 002°54'511.0
2017-Jul-07 16:00N 47°19' W 003°01'510.5
2017-Jul-07 15:30N 47°22' W 003°07'510.4
2017-Jul-07 15:00N 47°25' W 003°13'1010.4
2017-Jul-07 14:00N 47°29' W 003°28'510.0
2017-Jul-07 13:29N 47°31' W 003°35'510.2
2017-Jul-07 13:00N 47°33' W 003°41'610.3
2017-Jul-07 12:28N 47°35' W 003°49'510.1
2017-Jul-07 11:58N 47°36' W 003°56'7 9.9
2017-Jul-07 11:14N 47°39' W 004°06'4 9.8
2017-Jul-07 10:51N 47°41' W 004°11'3 9.1
2017-Jul-07 10:30N 47°42' W 004°15'5 9.2
2017-Jul-07 10:00N 47°45' W 004°21'5 8.9
2017-Jul-07 09:29N 47°47' W 004°27'4 9.1
2017-Jul-07 09:00N 47°50' W 004°31'5 9.5
2017-Jul-07 08:30N 47°54' W 004°36'5 9.5
2017-Jul-07 08:01N 47°57' W 004°41'5 9.4
2017-Jul-07 07:31N 48°01' W 004°45'5 9.6
2017-Jul-07 07:01N 48°06' W 004°45'5 9.8
2017-Jul-07 06:31N 48°11' W 004°46'5 9.7
2017-Jul-07 06:01N 48°16' W 004°46'611.2
2017-Jul-07 05:30N 48°21' W 004°48'612.1
2017-Jul-07 05:01N 48°27' W 004°51'510.2
2017-Jul-07 04:31N 48°32' W 004°51'5 9.6
2017-Jul-07 04:00N 48°36' W 004°48'4 8.7
2017-Jul-07 03:31N 48°39' W 004°43'4 8.8
2017-Jul-07 03:01N 48°41' W 004°37'4 8.6
2017-Jul-07 02:31N 48°43' W 004°31'4 8.4
2017-Jul-07 02:00N 48°44' W 004°24'4 8.7
2017-Jul-07 01:31N 48°45' W 004°18'5 9.5
2017-Jul-07 01:00N 48°46' W 004°11'5 9.8
2017-Jul-07 00:30N 48°47' W 004°04'5 9.5
2017-Jul-07 00:00N 48°48' W 003°56'510.6
2017-Jul-06 23:30N 48°49' W 003°49'310.6
2017-Jul-06 23:15N 48°49' W 003°45'36 0.9
2017-Jul-05 08:28N 48°49' W 002°50'0 0.0
2017-Jul-05 07:43N 48°49' W 002°50'0 0.0
2017-Jul-05 07:31N 48°49' W 002°50'0 0.0
2017-Jul-05 06:57N 48°49' W 002°50'2 4.5
2017-Jul-05 06:29N 48°49' W 002°47'1111.2
2017-Jul-05 05:28N 48°45' W 002°30'510.8
2017-Jul-05 05:00N 48°44' W 002°23'610.5
2017-Jul-05 04:26N 48°42' W 002°14'510.3
2017-Jul-05 03:58N 48°40' W 002°08'4 8.9
2017-Jul-05 03:30N 48°39' W 002°02'1 1.2
2017-Jul-05 02:57N 48°39' W 002°01'0 0.1
2017-Jul-05 02:30N 48°39' W 002°01'0 0.0
2017-Jul-05 01:59N 48°39' W 002°01'0 0.0
2017-Jul-05 01:30N 48°39' W 002°01'0 0.8
2017-Jul-05 01:00N 48°39' W 002°01'0 0.6
2017-Jul-05 00:30N 48°38' W 002°02'4 7.9
2017-Jul-05 00:00N 48°40' W 002°07'4 8.0
2017-Jul-04 23:30N 48°41' W 002°13'5 8.2
2017-Jul-04 22:54N 48°43' W 002°20'4 7.7
2017-Jul-04 22:23N 48°44' W 002°26'4 7.9
2017-Jul-04 21:56N 48°45' W 002°31'4 7.7
2017-Jul-04 21:21N 48°47' W 002°37'3 7.6
2017-Jul-04 20:55N 48°48' W 002°42'3 7.6
2017-Jul-04 20:28N 48°49' W 002°47'2 3.0
2017-Jul-04 19:54N 48°49' W 002°50'0 0.0
2017-Jul-04 19:07N 48°49' W 002°50'0 0.0
2017-Jul-04 18:58N 48°49' W 002°50'0 0.0
2017-Jul-04 18:22N 48°49' W 002°50'1 3.9
2017-Jul-04 18:01N 48°49' W 002°48'711.4
2017-Jul-04 17:22N 48°47' W 002°37'411.3
2017-Jul-04 17:00N 48°45' W 002°31'710.9
2017-Jul-04 16:19N 48°43' W 002°20'410.5
2017-Jul-04 15:54N 48°42' W 002°14'410.3
2017-Jul-04 15:30N 48°40' W 002°08'5 9.1
2017-Jul-04 15:00N 48°39' W 002°02'1 0.4
2017-Jul-04 13:39N 48°39' W 002°01'0 0.0
2017-Jul-04 13:21N 48°39' W 002°01'0 0.0
2017-Jul-04 12:58N 48°39' W 002°01'0 0.0
2017-Jul-04 12:25N 48°39' W 002°01'0 0.0
2017-Jul-04 11:45N 48°39' W 002°01'0 0.0
2017-Jul-04 11:24N 48°39' W 002°01'0 0.0
2017-Jul-04 11:00N 48°39' W 002°01'0 0.0
2017-Jul-04 10:29N 48°39' W 002°01'0 0.0
2017-Jul-04 09:59N 48°39' W 002°01'0 0.0
2017-Jul-04 09:30N 48°39' W 002°01'0 0.0
2017-Jul-04 09:00N 48°39' W 002°01'0 0.0
2017-Jul-04 08:27N 48°39' W 002°01'0 0.0
2017-Jul-04 08:00N 48°39' W 002°01'0 0.0
2017-Jul-04 07:28N 48°39' W 002°01'0 0.0
2017-Jul-04 07:00N 48°39' W 002°01'0 0.0
2017-Jul-04 06:25N 48°39' W 002°01'0 0.0
2017-Jul-04 06:00N 48°39' W 002°01'0 0.0
2017-Jul-04 05:29N 48°39' W 002°01'0 0.0
2017-Jul-04 05:00N 48°39' W 002°01'0 0.0
2017-Jul-04 04:30N 48°39' W 002°01'0 0.0
2017-Jul-04 04:00N 48°39' W 002°01'0 0.0
2017-Jul-04 03:25N 48°39' W 002°01'0 0.0
2017-Jul-04 03:00N 48°39' W 002°01'0 0.0
2017-Jul-04 02:28N 48°39' W 002°01'0 0.0
2017-Jul-04 01:53N 48°39' W 002°01'0 0.0
2017-Jul-04 01:27N 48°39' W 002°01'0 0.0
2017-Jul-04 00:52N 48°39' W 002°01'0 0.0
2017-Jul-04 00:22N 48°39' W 002°01'0 0.0
2017-Jul-03 23:58N 48°39' W 002°01'0 0.0
2017-Jul-03 23:30N 48°39' W 002°01'0 0.0
2017-Jul-03 22:19N 48°39' W 002°01'0 0.0
2017-Jul-03 21:59N 48°39' W 002°01'0 0.0
2017-Jul-03 21:27N 48°39' W 002°01'0 0.0
2017-Jul-03 20:56N 48°39' W 002°01'0 0.0
2017-Jul-03 20:05N 48°39' W 002°01'0 0.0
2017-Jul-03 19:59N 48°39' W 002°01'0 0.0
2017-Jul-03 19:27N 48°39' W 002°01'0 0.0
2017-Jul-03 18:58N 48°39' W 002°01'0 0.0
2017-Jul-03 17:57N 48°39' W 002°01'0 0.0
2017-Jul-03 16:44N 48°39' W 002°01'0 0.0
2017-Jul-03 16:09N 48°39' W 002°01'0 0.0
2017-Jul-03 15:52N 48°39' W 002°01'0 0.0
2017-Jul-03 13:27N 48°39' W 002°01'0 0.0
2017-Jul-03 10:39N 48°39' W 002°01'0 0.0
2017-Jul-03 10:27N 48°39' W 002°01'0 0.0
2017-Jul-03 09:22N 48°39' W 002°01'0 0.0
2017-Jul-03 08:51N 48°39' W 002°01'0 0.0
2017-Jul-03 08:14N 48°39' W 002°01'0 0.0
2017-Jul-03 07:54N 48°39' W 002°01'0 0.0
2017-Jul-03 07:11N 48°39' W 002°01'0 0.0
2017-Jul-03 06:59N 48°39' W 002°01'0 0.0
2017-Jul-03 06:29N 48°39' W 002°01'0 0.0
2017-Jul-03 05:52N 48°39' W 002°01'0 0.0
2017-Jul-03 05:30N 48°39' W 002°01'0 0.0
2017-Jul-03 05:00N 48°39' W 002°01'0 0.0
2017-Jul-03 04:24N 48°39' W 002°01'0 0.0
2017-Jul-03 03:57N 48°39' W 002°01'0 0.0
2017-Jul-03 03:30N 48°39' W 002°01'0 0.0
2017-Jul-03 02:42N 48°39' W 002°01'0 0.0
2017-Jul-03 02:26N 48°39' W 002°01'0 0.0
2017-Jul-03 01:57N 48°39' W 002°01'0 0.0
2017-Jul-03 01:27N 48°39' W 002°01'0 0.0
2017-Jul-03 00:39N 48°39' W 002°01'0 0.0
2017-Jul-03 00:15N 48°39' W 002°01'0 0.0
2017-Jul-02 23:51N 48°39' W 002°01'0 0.0
2017-Jul-02 23:22N 48°39' W 002°01'0 0.0
2017-Jul-02 22:59N 48°39' W 002°01'0 0.8
2017-Jul-02 22:21N 48°39' W 002°02'1 4.1
2017-Jul-02 21:59N 48°39' W 002°03'4 7.1
2017-Jul-02 21:28N 48°40' W 002°09'4 6.3
2017-Jul-02 20:53N 48°42' W 002°14'4 6.5
2017-Jul-02 20:18N 48°43' W 002°20'3 6.3
2017-Jul-02 19:45N 48°44' W 002°24'2 6.5
2017-Jul-02 19:25N 48°44' W 002°28'4 6.4
2017-Jul-02 18:52N 48°46' W 002°33'2 6.3
2017-Jul-02 18:30N 48°46' W 002°36'4 6.5
2017-Jul-02 17:52N 48°47' W 002°42'3 6.7
2017-Jul-02 17:22N 48°49' W 002°47'2 5.4
2017-Jul-02 17:00N 48°49' W 002°50'57 1.9
2017-Jul-01 11:43N 48°45' W 004°15'811.3
2017-Jul-01 11:03N 48°43' W 004°26'111.5
2017-Jul-01 10:58N 48°43' W 004°28'511.5
2017-Jul-01 10:30N 48°41' W 004°35'611.8
2017-Jul-01 10:00N 48°39' W 004°43'611.2
2017-Jul-01 09:30N 48°34' W 004°49'510.9
2017-Jul-01 09:00N 48°29' W 004°50'510.6
2017-Jul-01 08:30N 48°24' W 004°49'611.2
2017-Jul-01 08:01N 48°18' W 004°47'5 9.9
2017-Jul-01 07:31N 48°13' W 004°45'5 9.9
2017-Jul-01 07:00N 48°08' W 004°45'510.3
2017-Jul-01 06:30N 48°03' W 004°46'510.5
2017-Jul-01 06:00N 47°59' W 004°42'5 9.6
2017-Jul-01 05:30N 47°55' W 004°37'5 9.3
2017-Jul-01 04:59N 47°52' W 004°32'9 9.0
2017-Jul-01 03:58N 47°45' W 004°23'  

Dump ship's entire track history